createdAt,value
2022-08-09T00:06:18.309Z,16.70
2022-08-09T00:13:05.256Z,16.70
2022-08-09T00:20:20.760Z,16.80
2022-08-09T00:27:24.169Z,16.90
2022-08-09T00:34:33.480Z,16.90
2022-08-09T00:44:14.815Z,16.82
2022-08-09T00:49:00.116Z,16.80
2022-08-09T00:56:04.668Z,16.80
2022-08-09T01:03:10.098Z,16.80
2022-08-09T01:10:09.970Z,16.70
2022-08-09T01:16:56.297Z,16.70
2022-08-09T01:24:05.327Z,16.60
2022-08-09T01:32:28.219Z,16.50
2022-08-09T01:38:20.000Z,16.40
2022-08-09T01:45:20.273Z,16.40
2022-08-09T01:52:07.611Z,16.42
2022-08-09T01:59:10.654Z,16.50
2022-08-09T02:06:13.674Z,16.50
2022-08-09T02:13:04.036Z,16.42
2022-08-09T02:20:09.118Z,16.30
2022-08-09T02:27:13.928Z,16.00
2022-08-09T02:34:40.109Z,15.96
2022-08-09T02:41:28.787Z,16.00
2022-08-09T02:48:30.777Z,16.00
2022-08-09T02:55:19.994Z,16.00
2022-08-09T03:02:24.058Z,15.90
2022-08-09T03:09:27.161Z,15.70
2022-08-09T03:16:25.652Z,15.58
2022-08-09T03:23:28.779Z,15.44
2022-08-09T03:30:33.717Z,15.30
2022-08-09T03:37:55.342Z,15.20
2022-08-09T03:45:00.765Z,15.20
2022-08-09T03:52:04.334Z,15.20
2022-08-09T03:59:07.537Z,15.20
2022-08-09T04:06:22.622Z,15.30
2022-08-09T04:14:37.261Z,15.10
2022-08-09T04:20:50.513Z,15.10
2022-08-09T04:27:54.568Z,15.10
2022-08-09T04:35:03.211Z,15.20
2022-08-09T04:42:09.175Z,15.40
2022-08-09T04:49:05.713Z,15.60
2022-08-09T04:56:05.511Z,15.90
2022-08-09T05:02:48.769Z,16.10
2022-08-09T05:09:53.862Z,16.20
2022-08-09T05:16:59.700Z,16.50
2022-08-09T05:24:01.710Z,16.70
2022-08-09T05:31:09.432Z,16.90
2022-08-09T05:38:12.389Z,17.16
2022-08-09T05:45:25.646Z,17.40
2022-08-09T05:52:26.859Z,17.70
2022-08-09T05:59:16.846Z,17.90
2022-08-09T06:06:20.112Z,18.20
2022-08-09T06:13:22.860Z,18.50
2022-08-09T06:20:25.679Z,18.80
2022-08-09T06:27:43.178Z,19.10
2022-08-09T06:34:22.992Z,19.36
2022-08-09T06:41:18.880Z,19.60
2022-08-09T06:48:30.730Z,19.80
2022-08-09T06:55:34.681Z,20.10
2022-08-09T07:02:38.115Z,20.30
2022-08-09T07:08:43.344Z,20.60
2022-08-09T07:16:36.112Z,20.80
2022-08-09T07:23:19.058Z,21.10
2022-08-09T07:30:20.364Z,21.32
2022-08-09T07:37:26.712Z,21.60
2022-08-09T07:44:50.778Z,21.80
2022-08-09T07:52:05.098Z,22.00
2022-08-09T07:59:14.173Z,22.30
2022-08-09T08:06:32.121Z,22.50
2022-08-09T08:13:56.079Z,22.70
2022-08-09T08:21:00.167Z,22.90
2022-08-09T08:27:52.777Z,23.00
2022-08-09T08:34:40.635Z,23.10
2022-08-09T08:41:51.906Z,23.20
2022-08-09T08:48:52.029Z,23.20
2022-08-09T08:55:57.027Z,23.30
2022-08-09T09:03:08.615Z,23.40
2022-08-09T09:10:15.247Z,23.60
2022-08-09T09:17:18.309Z,23.88
2022-08-09T09:24:45.590Z,24.10
2022-08-09T09:32:07.046Z,24.40
2022-08-09T09:39:50.335Z,24.60
2022-08-09T09:46:51.976Z,24.60
2022-08-09T09:54:02.141Z,24.50
2022-08-09T10:01:37.451Z,24.60
2022-08-09T10:08:54.936Z,24.90
2022-08-09T10:16:55.690Z,25.08
2022-08-09T10:23:41.578Z,25.30
2022-08-09T10:32:27.934Z,25.50
2022-08-09T10:38:13.686Z,25.60
2022-08-09T10:45:35.350Z,25.72
2022-08-09T10:53:00.265Z,25.60
2022-08-09T11:00:03.237Z,25.62
2022-08-09T11:07:18.994Z,25.66
2022-08-09T11:14:32.461Z,25.66
2022-08-09T11:21:38.055Z,25.40
2022-08-09T11:29:10.647Z,25.58
2022-08-09T11:36:35.697Z,25.90
2022-08-09T11:43:42.733Z,25.90
2022-08-09T11:52:49.005Z,25.70
2022-08-09T11:58:36.815Z,25.50
2022-08-09T12:05:42.249Z,25.20
2022-08-09T12:12:52.937Z,24.98
2022-08-09T12:19:59.583Z,24.60
2022-08-09T12:29:10.284Z,24.48
2022-08-09T12:34:01.035Z,24.50
2022-08-09T12:40:48.545Z,24.52
2022-08-09T12:46:33.615Z,24.50
2022-08-09T12:53:41.071Z,24.36
2022-08-09T13:00:51.217Z,24.18
2022-08-09T13:07:54.553Z,24.10
2022-08-09T13:14:58.657Z,24.00
2022-08-09T13:22:36.961Z,24.00
2022-08-09T13:29:19.056Z,24.08
2022-08-09T13:36:39.232Z,24.10
2022-08-09T13:43:38.915Z,24.10
2022-08-09T13:50:42.866Z,24.30
2022-08-09T13:57:09.016Z,24.50
2022-08-09T14:04:23.659Z,24.50
2022-08-09T14:11:16.337Z,24.70
2022-08-09T14:18:19.943Z,24.60
2022-08-09T14:24:47.087Z,24.70
2022-08-09T14:31:51.771Z,24.70
2022-08-09T14:38:02.595Z,24.60
2022-08-09T14:44:11.136Z,24.70
2022-08-09T14:50:16.211Z,24.80
2022-08-09T14:56:57.839Z,24.70
2022-08-09T15:04:00.776Z,24.70
2022-08-09T15:10:36.830Z,24.80
2022-08-09T15:16:30.485Z,24.70
2022-08-09T15:23:03.173Z,24.60
2022-08-09T15:30:58.279Z,24.50
2022-08-09T15:36:50.400Z,24.50
2022-08-09T15:43:36.709Z,24.50
2022-08-09T15:50:05.485Z,24.50
2022-08-09T15:56:51.524Z,24.50
2022-08-09T16:03:41.779Z,24.50
2022-08-09T16:10:38.463Z,24.40
2022-08-09T16:17:11.112Z,24.30
2022-08-09T16:23:12.462Z,24.30
2022-08-09T16:29:49.926Z,24.20
2022-08-09T16:35:53.311Z,24.10
2022-08-09T16:41:39.250Z,23.90
2022-08-09T16:48:39.727Z,23.80
2022-08-09T16:54:52.430Z,23.70
2022-08-09T17:01:55.810Z,23.68
2022-08-09T17:09:03.245Z,23.50
2022-08-09T17:16:00.214Z,23.30
2022-08-09T17:22:54.265Z,23.20
2022-08-09T17:29:46.276Z,23.04
2022-08-09T17:36:53.677Z,22.90
2022-08-09T17:43:34.657Z,22.80
2022-08-09T17:50:07.481Z,22.70
2022-08-09T17:56:06.180Z,22.50
2022-08-09T18:03:06.434Z,22.40
2022-08-09T18:10:04.462Z,22.20
2022-08-09T18:17:08.542Z,22.10
2022-08-09T18:24:22.064Z,21.90
2022-08-09T18:31:51.428Z,21.80
2022-08-09T18:38:44.891Z,21.60
2022-08-09T18:44:52.582Z,21.50
2022-08-09T18:51:55.432Z,21.30
2022-08-09T18:59:01.417Z,21.12
2022-08-09T19:06:07.062Z,20.96
2022-08-09T19:13:23.335Z,20.70
2022-08-09T19:20:39.234Z,20.50
2022-08-09T19:27:42.729Z,20.30
2022-08-09T19:33:45.070Z,20.10
2022-08-09T19:40:37.767Z,20.10
2022-08-09T19:47:41.520Z,20.00
2022-08-09T19:54:27.243Z,19.80
2022-08-09T20:01:20.005Z,19.70
2022-08-09T20:08:12.977Z,19.50
2022-08-09T20:14:59.663Z,19.48
2022-08-09T20:22:02.745Z,19.34
2022-08-09T20:28:47.423Z,19.20
2022-08-09T20:35:52.501Z,19.20
2022-08-09T20:43:00.400Z,19.10
2022-08-09T20:50:14.737Z,19.00
2022-08-09T20:57:34.068Z,18.90
2022-08-09T21:05:51.968Z,18.78
2022-08-09T21:12:19.661Z,18.60
2022-08-09T21:20:17.398Z,18.40
2022-08-09T21:26:45.962Z,18.30
2022-08-09T21:33:52.840Z,18.30
2022-08-09T21:40:56.550Z,18.20
2022-08-09T21:47:51.071Z,18.20
2022-08-09T21:54:59.361Z,18.10
2022-08-09T22:02:07.983Z,18.10
2022-08-09T22:09:14.432Z,18.00
2022-08-09T22:16:18.839Z,18.00
2022-08-09T22:23:21.617Z,18.00
2022-08-09T22:30:31.493Z,18.00
2022-08-09T22:37:39.997Z,17.92
2022-08-09T22:44:45.793Z,17.88
2022-08-09T22:51:49.436Z,17.72
2022-08-09T22:58:59.580Z,17.70
2022-08-09T23:06:02.781Z,17.70
2022-08-09T23:13:06.087Z,17.60
2022-08-09T23:20:15.977Z,17.60
2022-08-09T23:27:07.279Z,17.50
2022-08-09T23:34:10.077Z,17.50
2022-08-09T23:41:06.843Z,17.42
2022-08-09T23:47:49.725Z,17.40
2022-08-09T23:54:52.867Z,17.30
